createdAt,value
2018-12-13T00:02:03.818Z,13.63
2018-12-13T00:04:31.222Z,14.13
2018-12-13T00:06:58.572Z,13.40
2018-12-13T00:09:25.922Z,14.30
2018-12-13T00:11:53.275Z,14.80
2018-12-13T00:14:20.600Z,12.90
2018-12-13T00:16:47.991Z,13.20
2018-12-13T00:19:15.346Z,12.70
2018-12-13T00:21:42.689Z,13.60
2018-12-13T00:24:10.064Z,12.10
2018-12-13T00:26:37.403Z,12.60
2018-12-13T00:29:04.757Z,11.87
2018-12-13T00:31:32.171Z,11.83
2018-12-13T00:33:59.567Z,10.30
2018-12-13T00:36:26.936Z,9.90
2018-12-13T00:38:54.279Z,9.90
2018-12-13T00:41:21.614Z,10.20
2018-12-13T00:43:48.985Z,10.83
2018-12-13T00:46:16.376Z,12.07
2018-12-13T00:48:43.752Z,11.10
2018-12-13T00:51:11.151Z,12.30
2018-12-13T00:53:38.530Z,12.67
2018-12-13T00:56:06.000Z,13.83
2018-12-13T00:58:33.322Z,13.33
2018-12-13T01:01:01.483Z,13.40
2018-12-13T01:03:29.466Z,13.50
2018-12-13T01:05:56.855Z,13.47
2018-12-13T01:08:24.389Z,13.80
2018-12-13T01:10:51.731Z,13.03
2018-12-13T01:13:19.086Z,13.53
2018-12-13T01:15:46.428Z,13.33
2018-12-13T01:18:13.795Z,13.83
2018-12-13T01:20:41.728Z,12.80
2018-12-13T01:23:09.227Z,13.23
2018-12-13T01:25:36.578Z,13.20
2018-12-13T01:28:03.926Z,13.60
2018-12-13T01:30:31.443Z,11.70
2018-12-13T01:32:58.839Z,13.50
2018-12-13T01:35:26.205Z,12.13
2018-12-13T01:37:53.565Z,12.40
2018-12-13T01:40:20.906Z,11.90
2018-12-13T01:42:48.269Z,11.63
2018-12-13T01:45:15.618Z,11.63
2018-12-13T01:47:42.995Z,11.20
2018-12-13T01:50:10.352Z,12.00
2018-12-13T01:52:37.679Z,11.43
2018-12-13T01:55:05.072Z,12.43
2018-12-13T01:57:32.382Z,12.23
2018-12-13T01:59:59.750Z,11.77
2018-12-13T02:03:51.582Z,12.17
2018-12-13T02:06:18.959Z,11.60
2018-12-13T02:10:10.623Z,11.30
2018-12-13T02:12:38.031Z,11.27
2018-12-13T02:15:05.603Z,12.30
2018-12-13T02:17:33.049Z,11.30
2018-12-13T02:20:00.401Z,13.00
2018-12-13T02:22:27.794Z,11.40
2018-12-13T02:24:55.216Z,12.30
2018-12-13T02:27:22.559Z,11.20
2018-12-13T02:29:49.923Z,11.70
2018-12-13T02:32:17.280Z,13.47
2018-12-13T02:34:44.654Z,12.43
2018-12-13T02:37:11.980Z,12.10
2018-12-13T02:39:39.330Z,12.47
2018-12-13T02:42:06.693Z,11.30
2018-12-13T02:44:34.059Z,12.43
2018-12-13T02:47:01.402Z,11.70
2018-12-13T02:49:28.756Z,11.60
2018-12-13T02:51:56.107Z,12.17
2018-12-13T02:54:23.489Z,11.90
2018-12-13T02:56:50.813Z,13.33
2018-12-13T02:59:18.187Z,11.90
2018-12-13T03:01:45.544Z,11.93
2018-12-13T03:04:12.917Z,11.80
2018-12-13T03:06:40.362Z,11.80
2018-12-13T03:09:07.907Z,12.27
2018-12-13T03:11:35.300Z,11.50
2018-12-13T03:14:02.787Z,12.13
2018-12-13T03:16:30.180Z,12.67
2018-12-13T03:18:57.542Z,12.30
2018-12-13T03:21:24.870Z,12.17
2018-12-13T03:23:52.233Z,12.00
2018-12-13T03:26:19.588Z,12.17
2018-12-13T03:28:46.963Z,11.43
2018-12-13T03:31:14.297Z,11.10
2018-12-13T03:33:41.642Z,13.03
2018-12-13T03:36:09.019Z,12.57
2018-12-13T03:38:36.358Z,11.63
2018-12-13T03:41:03.851Z,11.60
2018-12-13T03:43:31.271Z,12.17
2018-12-13T03:45:58.631Z,12.40
2018-12-13T03:48:25.985Z,11.70
2018-12-13T03:50:53.329Z,11.90
2018-12-13T03:53:20.999Z,11.90
2018-12-13T03:55:48.351Z,12.30
2018-12-13T03:58:15.710Z,12.67
2018-12-13T04:00:43.068Z,13.00
2018-12-13T04:03:10.418Z,12.90
2018-12-13T04:05:37.781Z,12.37
2018-12-13T04:08:05.121Z,12.40
2018-12-13T04:11:56.925Z,11.83
2018-12-13T04:14:24.310Z,13.20
2018-12-13T04:16:51.678Z,11.90
2018-12-13T04:19:19.028Z,12.40
2018-12-13T04:28:45.332Z,11.67
2018-12-13T04:31:12.656Z,13.00
2018-12-13T04:33:40.009Z,12.77
2018-12-13T04:36:07.388Z,12.73
2018-12-13T04:38:34.737Z,13.20
2018-12-13T04:41:02.100Z,12.90
2018-12-13T04:43:29.431Z,12.53
2018-12-13T04:45:56.792Z,13.30
2018-12-13T04:48:24.146Z,12.43
2018-12-13T04:50:51.507Z,13.50
2018-12-13T04:53:18.870Z,14.23
2018-12-13T04:55:46.194Z,13.80
2018-12-13T04:58:13.558Z,12.77
2018-12-13T05:00:40.904Z,12.63
2018-12-13T05:03:08.274Z,13.23
2018-12-13T05:05:35.629Z,12.27
2018-12-13T05:08:03.010Z,12.40
2018-12-13T05:10:35.962Z,12.60
2018-12-13T05:13:03.334Z,13.57
2018-12-13T05:15:30.665Z,13.57
2018-12-13T05:17:58.023Z,13.70
2018-12-13T05:20:25.400Z,13.00
2018-12-13T05:22:52.756Z,14.47
2018-12-13T05:25:20.116Z,12.70
2018-12-13T05:27:47.450Z,13.50
2018-12-13T05:31:39.255Z,15.13
2018-12-13T05:34:06.654Z,12.23
2018-12-13T05:36:33.973Z,13.90
2018-12-13T05:39:01.341Z,13.50
2018-12-13T05:41:28.702Z,13.73
2018-12-13T05:43:56.071Z,13.77
2018-12-13T05:46:23.420Z,14.07
2018-12-13T05:48:50.885Z,14.43
2018-12-13T05:51:18.240Z,13.80
2018-12-13T05:53:45.867Z,13.47
2018-12-13T05:56:13.229Z,12.80
2018-12-13T05:58:40.579Z,14.33
2018-12-13T06:01:07.953Z,14.07
2018-12-13T06:03:35.297Z,13.93
2018-12-13T06:07:27.123Z,13.70
2018-12-13T06:09:54.584Z,13.10
2018-12-13T06:12:21.941Z,14.20
2018-12-13T06:14:49.307Z,15.03
2018-12-13T06:17:16.699Z,13.93
2018-12-13T06:22:42.018Z,17.87
2018-12-13T06:25:09.486Z,17.53
2018-12-13T06:27:36.839Z,16.10
2018-12-13T06:30:07.647Z,17.23
2018-12-13T06:32:34.372Z,17.10
2018-12-13T06:35:01.748Z,17.40
2018-12-13T06:37:29.090Z,16.73
2018-12-13T06:39:56.513Z,17.17
2018-12-13T06:42:24.030Z,20.40
2018-12-13T06:44:51.474Z,19.40
2018-12-13T06:47:18.825Z,20.87
2018-12-13T06:49:46.171Z,17.33
2018-12-13T06:52:13.548Z,17.70
2018-12-13T06:54:40.886Z,18.10
2018-12-13T06:57:08.588Z,18.00
2018-12-13T06:59:35.998Z,20.20
2018-12-13T07:02:03.483Z,18.67
2018-12-13T07:04:30.916Z,18.70
2018-12-13T07:06:58.266Z,21.63
2018-12-13T07:09:26.643Z,20.90
2018-12-13T07:11:53.986Z,19.27
2018-12-13T07:14:21.358Z,19.07
2018-12-13T07:16:48.701Z,20.40
2018-12-13T07:19:16.049Z,17.83
2018-12-13T07:21:43.407Z,19.70
2018-12-13T07:24:11.127Z,18.00
2018-12-13T07:26:38.543Z,19.77
2018-12-13T07:29:05.887Z,22.23
2018-12-13T07:31:33.301Z,19.33
2018-12-13T07:34:00.732Z,19.80
2018-12-13T07:36:28.069Z,20.50
2018-12-13T07:38:55.444Z,21.30
2018-12-13T07:41:23.790Z,20.27
2018-12-13T07:43:51.260Z,19.30
2018-12-13T07:46:18.728Z,17.67
2018-12-13T07:48:46.086Z,19.67
2018-12-13T07:51:13.807Z,21.40
2018-12-13T07:53:41.159Z,21.47
2018-12-13T07:56:08.526Z,21.47
2018-12-13T07:58:35.849Z,19.90
2018-12-13T08:01:03.246Z,19.77
2018-12-13T08:03:30.619Z,18.90
2018-12-13T08:05:58.047Z,20.43
2018-12-13T08:08:25.398Z,18.00
2018-12-13T08:10:53.803Z,18.83
2018-12-13T08:13:21.171Z,23.47
2018-12-13T08:15:48.596Z,23.00
2018-12-13T08:18:15.958Z,24.20
2018-12-13T08:20:43.336Z,20.43
2018-12-13T08:23:10.769Z,21.90
2018-12-13T08:25:38.121Z,19.90
2018-12-13T08:28:05.423Z,21.80
2018-12-13T08:30:33.379Z,18.30
2018-12-13T08:33:01.317Z,21.97
2018-12-13T08:35:29.543Z,23.30
2018-12-13T08:37:56.931Z,22.37
2018-12-13T08:40:24.300Z,23.00
2018-12-13T08:42:51.643Z,20.70
2018-12-13T08:45:19.006Z,21.07
2018-12-13T08:47:46.379Z,20.90
2018-12-13T08:50:13.727Z,21.77
2018-12-13T08:52:41.074Z,21.63
2018-12-13T08:55:08.467Z,21.90
2018-12-13T08:57:35.876Z,23.43
2018-12-13T09:00:03.250Z,24.27
2018-12-13T09:02:30.610Z,23.80
2018-12-13T09:04:57.954Z,21.20
2018-12-13T09:07:25.425Z,19.02
2018-12-13T09:09:53.803Z,18.27
2018-12-13T09:12:21.127Z,18.97
2018-12-13T09:14:48.791Z,18.48
2018-12-13T09:17:17.199Z,21.17
2018-12-13T09:19:45.566Z,19.10
2018-12-13T09:22:12.922Z,25.25
2018-12-13T09:24:40.265Z,23.65
2018-12-13T09:27:07.637Z,24.47
2018-12-13T09:29:34.981Z,20.17
2018-12-13T09:32:02.612Z,20.40
2018-12-13T09:34:29.975Z,21.13
2018-12-13T09:36:57.379Z,21.87
2018-12-13T09:39:24.789Z,20.68
2018-12-13T09:41:52.259Z,20.27
2018-12-13T09:44:19.727Z,19.90
2018-12-13T09:46:47.507Z,24.27
2018-12-13T09:49:15.275Z,22.53
2018-12-13T09:51:43.021Z,17.57
2018-12-13T09:54:10.378Z,19.00
2018-12-13T09:56:37.735Z,20.37
2018-12-13T09:59:05.368Z,21.33
2018-12-13T10:01:32.731Z,19.50
2018-12-13T10:04:00.188Z,19.40
2018-12-13T10:06:27.546Z,20.35
2018-12-13T10:08:54.916Z,20.60
2018-12-13T10:11:22.262Z,22.52
2018-12-13T10:13:50.153Z,18.60
2018-12-13T10:16:17.640Z,18.57
2018-12-13T10:18:45.066Z,19.45
2018-12-13T10:21:13.404Z,18.83
2018-12-13T10:23:40.777Z,20.97
2018-12-13T10:26:08.127Z,31.67
2018-12-13T10:28:35.450Z,26.20
2018-12-13T10:31:02.871Z,22.60
2018-12-13T10:33:30.313Z,19.90
2018-12-13T10:35:57.667Z,18.60
2018-12-13T10:38:25.029Z,18.60
2018-12-13T10:40:52.443Z,19.47
2018-12-13T10:43:19.825Z,18.63
2018-12-13T10:45:47.201Z,20.30
2018-12-13T10:48:14.627Z,19.60
2018-12-13T10:50:41.942Z,20.40
2018-12-13T10:53:09.318Z,21.90
2018-12-13T10:55:36.655Z,20.37
2018-12-13T10:58:04.075Z,21.83
2018-12-13T11:00:39.454Z,23.80
2018-12-13T11:03:23.700Z,27.70
2018-12-13T11:05:51.130Z,22.50
2018-12-13T11:08:18.698Z,20.80
2018-12-13T11:10:46.151Z,20.13
2018-12-13T11:13:13.485Z,19.70
2018-12-13T11:15:40.925Z,23.00
2018-12-13T11:18:08.298Z,23.07
2018-12-13T11:20:35.762Z,20.70
2018-12-13T11:23:03.159Z,19.73
2018-12-13T11:25:30.641Z,22.15
2018-12-13T11:28:12.536Z,20.20
2018-12-13T11:30:40.946Z,19.10
2018-12-13T11:33:08.423Z,19.10
2018-12-13T11:35:35.961Z,20.87
2018-12-13T11:38:03.412Z,22.25
2018-12-13T11:40:32.342Z,24.20
2018-12-13T11:42:59.751Z,21.63
2018-12-13T11:45:27.136Z,19.55
2018-12-13T11:47:54.492Z,21.00
2018-12-13T11:50:21.929Z,21.37
2018-12-13T11:52:49.295Z,20.70
2018-12-13T11:55:47.574Z,20.37
2018-12-13T11:58:15.941Z,22.27
2018-12-13T12:00:43.582Z,20.90
2018-12-13T12:03:10.965Z,22.83
2018-12-13T12:05:38.386Z,22.87
2018-12-13T12:08:05.766Z,20.23
2018-12-13T12:10:33.175Z,22.30
2018-12-13T12:13:00.578Z,21.33
2018-12-13T12:15:27.953Z,20.97
2018-12-13T12:17:55.375Z,23.27
2018-12-13T12:20:22.751Z,21.07
2018-12-13T12:22:50.114Z,23.40
2018-12-13T12:25:19.097Z,23.83
2018-12-13T12:27:48.563Z,25.43
2018-12-13T12:30:16.401Z,22.03
2018-12-13T12:32:43.806Z,21.00
2018-12-13T12:35:11.186Z,19.57
2018-12-13T12:37:38.906Z,20.17
2018-12-13T12:40:08.379Z,18.73
2018-12-13T12:42:35.792Z,19.87
2018-12-13T12:45:03.294Z,21.93
2018-12-13T12:47:30.841Z,23.03
2018-12-13T12:49:58.283Z,22.20
2018-12-13T12:52:25.732Z,19.33
2018-12-13T12:54:53.142Z,21.10
2018-12-13T12:57:20.548Z,20.63
2018-12-13T12:59:47.983Z,21.37
2018-12-13T13:02:15.378Z,19.73
2018-12-13T13:04:42.806Z,18.50
2018-12-13T13:07:10.233Z,22.13
2018-12-13T13:09:37.856Z,21.87
2018-12-13T13:12:06.184Z,22.17
2018-12-13T13:14:34.368Z,20.13
2018-12-13T13:17:01.712Z,19.10
2018-12-13T13:19:29.083Z,19.53
2018-12-13T13:21:56.435Z,20.30
2018-12-13T13:24:25.275Z,19.70
2018-12-13T13:26:52.687Z,20.80
2018-12-13T13:29:20.050Z,23.90
2018-12-13T13:31:47.430Z,23.13
2018-12-13T13:34:15.149Z,21.50
2018-12-13T13:36:42.530Z,23.80
2018-12-13T13:39:09.967Z,18.47
2018-12-13T13:41:37.435Z,22.27
2018-12-13T13:44:04.814Z,24.20
2018-12-13T13:46:32.229Z,22.00
2018-12-13T13:48:59.599Z,24.90
2018-12-13T13:51:27.278Z,27.17
2018-12-13T13:53:54.887Z,24.07
2018-12-13T13:56:22.268Z,25.10
2018-12-13T13:58:49.719Z,22.57
2018-12-13T14:01:17.221Z,19.00
2018-12-13T14:03:44.628Z,20.35
2018-12-13T14:06:12.086Z,20.97
2018-12-13T14:08:39.458Z,21.10
2018-12-13T14:11:07.289Z,20.77
2018-12-13T14:13:35.187Z,21.62
2018-12-13T14:16:02.851Z,23.53
2018-12-13T14:18:30.476Z,23.83
2018-12-13T14:20:57.910Z,21.30
2018-12-13T14:23:25.509Z,19.95
2018-12-13T14:25:52.899Z,24.70
2018-12-13T14:28:20.330Z,21.93
2018-12-13T14:30:47.678Z,23.87
2018-12-13T14:33:15.045Z,22.30
2018-12-13T14:35:42.400Z,17.57
2018-12-13T14:38:10.354Z,23.50
2018-12-13T14:40:37.764Z,23.37
2018-12-13T14:43:05.175Z,24.20
2018-12-13T14:45:32.529Z,19.25
2018-12-13T14:47:59.887Z,20.30
2018-12-13T14:50:27.251Z,20.10
2018-12-13T14:52:54.606Z,21.07
2018-12-13T14:55:21.978Z,23.40
2018-12-13T14:57:49.408Z,19.03
2018-12-13T15:00:16.768Z,24.50
2018-12-13T15:02:44.254Z,20.30
2018-12-13T15:05:12.715Z,19.53
2018-12-13T15:07:40.167Z,18.00
2018-12-13T15:10:07.535Z,16.20
2018-12-13T15:12:34.950Z,19.33
2018-12-13T15:15:02.861Z,18.90
2018-12-13T15:17:30.346Z,17.97
2018-12-13T15:19:57.768Z,17.50
2018-12-13T15:22:25.086Z,17.43
2018-12-13T15:24:52.452Z,21.97
2018-12-13T15:27:20.243Z,19.50
2018-12-13T15:29:47.695Z,20.20
2018-12-13T15:32:15.031Z,17.90
2018-12-13T15:34:43.449Z,17.27
2018-12-13T15:37:10.859Z,16.93
2018-12-13T15:39:38.265Z,18.00
2018-12-13T15:42:05.680Z,18.00
2018-12-13T15:44:33.185Z,20.03
2018-12-13T15:47:00.616Z,20.90
2018-12-13T15:49:28.268Z,20.37
2018-12-13T15:51:55.627Z,21.03
2018-12-13T15:54:23.055Z,20.20
2018-12-13T15:56:51.443Z,19.30
2018-12-13T15:59:18.818Z,17.83
2018-12-13T16:01:46.275Z,18.53
2018-12-13T16:04:13.738Z,18.40
2018-12-13T16:06:41.183Z,18.70
2018-12-13T16:09:08.673Z,20.80
2018-12-13T16:11:36.077Z,19.33
2018-12-13T16:14:03.612Z,21.40
2018-12-13T16:16:30.989Z,19.23
2018-12-13T16:18:58.583Z,19.57
2018-12-13T16:21:26.039Z,18.70
2018-12-13T16:23:53.482Z,19.77
2018-12-13T16:26:20.867Z,20.90
2018-12-13T16:28:48.272Z,20.10
2018-12-13T16:31:15.674Z,20.53
2018-12-13T16:33:43.486Z,21.07
2018-12-13T16:36:10.877Z,22.00
2018-12-13T16:38:38.214Z,18.70
2018-12-13T16:41:05.594Z,20.47
2018-12-13T16:43:33.688Z,18.80
2018-12-13T16:46:01.219Z,18.70
2018-12-13T16:48:28.827Z,20.93
2018-12-13T16:50:56.242Z,19.03
2018-12-13T16:53:23.672Z,20.57
2018-12-13T16:55:51.036Z,21.73
2018-12-13T16:58:18.409Z,21.43
2018-12-13T17:00:45.839Z,20.00
2018-12-13T17:03:18.813Z,16.87
2018-12-13T17:05:48.476Z,19.70
2018-12-13T17:08:15.930Z,19.00
2018-12-13T17:10:43.357Z,18.00
2018-12-13T17:13:10.714Z,18.00
2018-12-13T17:15:38.102Z,17.60
2018-12-13T17:18:06.215Z,20.23
2018-12-13T17:20:33.561Z,23.60
2018-12-13T17:23:00.954Z,21.00
2018-12-13T17:25:29.844Z,18.87
2018-12-13T17:27:58.263Z,18.93
2018-12-13T17:30:25.728Z,19.20
2018-12-13T17:32:53.118Z,18.60
2018-12-13T17:35:20.765Z,17.73
2018-12-13T17:37:48.135Z,20.00
2018-12-13T17:40:15.524Z,19.13
2018-12-13T17:42:43.300Z,19.73
2018-12-13T17:45:10.747Z,21.70
2018-12-13T17:47:38.229Z,19.07
2018-12-13T17:50:05.962Z,20.63
2018-12-13T17:52:33.489Z,23.10
2018-12-13T17:55:00.886Z,19.93
2018-12-13T17:57:28.325Z,19.10
2018-12-13T17:59:55.928Z,18.47
2018-12-13T18:02:23.331Z,21.90
2018-12-13T18:04:50.671Z,21.50
2018-12-13T18:07:18.092Z,22.63
2018-12-13T18:09:45.567Z,18.53
2018-12-13T18:12:13.063Z,19.20
2018-12-13T18:14:40.599Z,18.37
2018-12-13T18:17:08.088Z,18.50
2018-12-13T18:19:35.549Z,18.60
2018-12-13T18:22:03.042Z,18.80
2018-12-13T18:24:30.531Z,23.10
2018-12-13T18:26:57.877Z,20.87
2018-12-13T18:29:25.328Z,22.27
2018-12-13T18:31:52.728Z,19.10
2018-12-13T18:34:20.229Z,18.70
2018-12-13T18:36:47.807Z,21.47
2018-12-13T18:39:15.266Z,18.30
2018-12-13T18:41:42.646Z,17.27
2018-12-13T18:44:10.120Z,19.27
2018-12-13T18:46:38.017Z,21.70
2018-12-13T18:49:05.480Z,21.80
2018-12-13T18:51:32.873Z,20.87
2018-12-13T18:54:00.683Z,20.77
2018-12-13T18:56:28.091Z,23.33
2018-12-13T18:58:55.510Z,21.37
2018-12-13T19:01:22.916Z,20.53
2018-12-13T19:03:50.355Z,22.20
2018-12-13T19:06:18.066Z,17.80
2018-12-13T19:08:45.615Z,21.47
2018-12-13T19:11:13.035Z,23.17
2018-12-13T19:13:40.386Z,24.50
2018-12-13T19:16:07.785Z,21.77
2018-12-13T19:18:35.500Z,20.43
2018-12-13T19:21:02.863Z,20.00
2018-12-13T19:23:30.241Z,20.00
2018-12-13T19:25:58.384Z,21.20
2018-12-13T19:28:25.799Z,21.30
2018-12-13T19:30:53.198Z,20.30
2018-12-13T19:33:20.879Z,22.40
2018-12-13T19:35:48.246Z,22.80
2018-12-13T19:38:15.602Z,25.03
2018-12-13T19:40:48.297Z,23.30
2018-12-13T19:43:13.158Z,24.65
2018-12-13T19:45:40.624Z,26.85
2018-12-13T19:48:08.004Z,24.18
2018-12-13T19:50:35.543Z,25.50
2018-12-13T19:53:03.424Z,25.88
2018-12-13T19:55:30.900Z,25.73
2018-12-13T19:57:58.414Z,26.55
2018-12-13T20:00:25.909Z,26.82
2018-12-13T20:02:53.778Z,23.85
2018-12-13T20:05:21.284Z,22.35
2018-12-13T20:07:49.090Z,25.08
2018-12-13T20:10:16.645Z,26.15
2018-12-13T20:12:44.251Z,25.00
2018-12-13T20:15:24.107Z,24.00
2018-12-13T20:17:48.983Z,25.25
2018-12-13T20:20:16.517Z,25.35
2018-12-13T20:22:44.391Z,30.48
2018-12-13T20:25:11.921Z,25.37
2018-12-13T20:27:40.302Z,23.25
2018-12-13T20:30:09.252Z,21.62
2018-12-13T20:32:36.738Z,21.65
2018-12-13T20:35:04.734Z,22.15
2018-12-13T20:37:32.405Z,22.02
2018-12-13T20:39:59.891Z,27.17
2018-12-13T20:42:27.428Z,25.12
2018-12-13T20:44:54.860Z,22.85
2018-12-13T20:47:22.431Z,21.20
2018-12-13T20:49:49.859Z,20.68
2018-12-13T20:52:17.611Z,24.82
2018-12-13T20:54:45.418Z,21.68
2018-12-13T20:57:12.845Z,20.72
2018-12-13T20:59:40.319Z,19.48
2018-12-13T21:02:08.150Z,17.45
2018-12-13T21:04:35.712Z,20.90
2018-12-13T21:07:08.599Z,20.57
2018-12-13T21:09:36.418Z,18.90
2018-12-13T21:12:03.858Z,18.40
2018-12-13T21:14:31.385Z,22.45
2018-12-13T21:17:00.082Z,20.88
2018-12-13T21:19:27.742Z,33.23
2018-12-13T21:21:55.107Z,23.60
2018-12-13T21:24:22.445Z,17.80
2018-12-13T21:26:49.794Z,21.17
2018-12-13T21:29:19.234Z,24.77
2018-12-13T21:31:46.727Z,25.48
2018-12-13T21:34:14.111Z,26.13
2018-12-13T21:36:41.463Z,33.10
2018-12-13T21:39:08.844Z,34.57
2018-12-13T21:43:00.729Z,18.50
2018-12-13T21:45:28.218Z,19.30
2018-12-13T21:47:55.611Z,22.15
2018-12-13T21:50:23.046Z,20.97
2018-12-13T21:52:50.418Z,22.37
2018-12-13T21:55:19.346Z,20.00
2018-12-13T21:57:46.723Z,20.20
2018-12-13T22:00:14.111Z,17.00
2018-12-13T22:02:41.832Z,17.85
2018-12-13T22:05:09.209Z,20.07
2018-12-13T22:07:36.588Z,17.90
2018-12-13T22:10:04.876Z,19.63
2018-12-13T22:12:32.309Z,21.47
2018-12-13T22:15:02.489Z,22.60
2018-12-13T22:17:29.064Z,19.70
2018-12-13T22:19:56.422Z,19.67
2018-12-13T22:22:23.781Z,20.80
2018-12-13T22:24:51.122Z,19.17
2018-12-13T22:27:18.456Z,17.50
2018-12-13T22:29:45.835Z,19.90
2018-12-13T22:32:13.177Z,18.95
2018-12-13T22:34:40.767Z,20.50
2018-12-13T22:37:08.323Z,20.17
2018-12-13T22:39:35.661Z,21.33
2018-12-13T22:42:02.995Z,18.75
2018-12-13T22:44:30.472Z,19.55
2018-12-13T22:46:58.030Z,22.20
2018-12-13T22:49:25.378Z,19.65
2018-12-13T22:51:53.083Z,19.52
2018-12-13T22:54:20.488Z,18.17
2018-12-13T22:56:47.838Z,20.32
2018-12-13T22:59:15.253Z,21.62
2018-12-13T23:01:42.681Z,21.00
2018-12-13T23:04:10.038Z,17.87
2018-12-13T23:06:37.383Z,18.23
2018-12-13T23:09:05.652Z,17.15
2018-12-13T23:11:33.012Z,16.30
2018-12-13T23:14:00.393Z,17.10
2018-12-13T23:16:28.103Z,17.05
2018-12-13T23:18:55.465Z,18.55
2018-12-13T23:21:22.836Z,19.75
2018-12-13T23:23:50.212Z,19.82
2018-12-13T23:26:17.628Z,17.20
2018-12-13T23:28:45.040Z,17.87
2018-12-13T23:31:12.448Z,16.62
2018-12-13T23:33:39.822Z,20.25
2018-12-13T23:36:07.177Z,18.12
2018-12-13T23:38:34.512Z,18.95
2018-12-13T23:41:01.920Z,17.42
2018-12-13T23:43:29.326Z,23.02
2018-12-13T23:45:56.681Z,19.05
2018-12-13T23:48:24.059Z,20.00
2018-12-13T23:50:51.400Z,18.35
2018-12-13T23:53:18.754Z,17.40
2018-12-13T23:55:46.078Z,18.80
2018-12-13T23:58:13.478Z,18.93
